Time;durP1;ratioP1;P1;durP2;ratioP2;P2;SDS_P1;SDS_P2;PMS_P1;PMS_P2;Temp;Humidity;BMP_temperature;BMP_pressure;BME280_temperature;BME280_humidity;BME280_pressure;Samples;Min_cycle;Max_cycle;Signal;HPM_P1;HPM_P2
2023/10/30 00:00:53;;;;;;;2.55;2.28;;;;;;;;;;5051020;28;20410;-69
2023/10/30 00:03:22;;;;;;;2.45;2.33;;;;;;;;;;5051956;28;20111;-70
2023/10/30 00:05:51;;;;;;;2.65;2.45;;;;;;;;;;5051617;28;20464;-68
2023/10/30 00:08:21;;;;;;;2.58;2.00;;;;;;;;;;5049629;28;20132;-68
2023/10/30 00:10:50;;;;;;;2.10;2.00;;;;;;;;;;5049047;28;20041;-68
2023/10/30 00:13:18;;;;;;;2.00;1.90;;;;;;;;;;5052116;28;20073;-68
2023/10/30 00:15:47;;;;;;;2.30;2.20;;;;;;;;;;5048957;28;20045;-68
2023/10/30 00:18:15;;;;;;;2.25;2.10;;;;;;;;;;5048071;28;20127;-68
2023/10/30 00:20:43;;;;;;;2.17;1.98;;;;;;;;;;5045956;28;20048;-68
2023/10/30 00:23:12;;;;;;;1.90;1.80;;;;;;;;;;5047572;28;20047;-68
2023/10/30 00:25:41;;;;;;;2.17;2.08;;;;;;;;;;5044926;28;20057;-68
2023/10/30 00:28:10;;;;;;;2.53;2.40;;;;;;;;;;5049405;28;20077;-68
2023/10/30 00:30:38;;;;;;;2.13;2.03;;;;;;;;;;5050779;28;20472;-68
2023/10/30 00:33:07;;;;;;;3.70;2.20;;;;;;;;;;5051147;28;20047;-68
2023/10/30 00:35:36;;;;;;;2.10;2.00;;;;;;;;;;5043369;28;20441;-68
2023/10/30 00:38:04;;;;;;;2.20;2.10;;;;;;;;;;5046596;28;20122;-68
2023/10/30 00:40:33;;;;;;;2.35;2.20;;;;;;;;;;5050443;28;20505;-69
2023/10/30 00:43:03;;;;;;;2.25;2.05;;;;;;;;;;5048114;28;20149;-69
2023/10/30 00:45:31;;;;;;;3.63;2.05;;;;;;;;;;5050721;28;20051;-68
2023/10/30 00:48:00;;;;;;;1.90;1.80;;;;;;;;;;5049967;28;20068;-68
2023/10/30 00:50:32;;;;;;;2.50;2.30;;;;;;;;;;5050648;28;20056;-69
2023/10/30 00:53:00;;;;;;;1.95;1.85;;;;;;;;;;5045138;28;20049;-68
2023/10/30 00:55:29;;;;;;;2.22;2.10;;;;;;;;;;5051123;28;20056;-69
2023/10/30 00:57:57;;;;;;;2.25;2.10;;;;;;;;;;5044054;28;20085;-69
2023/10/30 01:00:27;;;;;;;2.63;2.38;;;;;;;;;;5047424;28;20498;-68
2023/10/30 01:02:56;;;;;;;2.05;1.95;;;;;;;;;;5049864;28;20120;-70
2023/10/30 01:05:25;;;;;;;1.90;1.80;;;;;;;;;;5050341;28;20514;-68
2023/10/30 01:07:54;;;;;;;2.35;2.25;;;;;;;;;;5050522;28;20045;-68
2023/10/30 01:10:22;;;;;;;2.30;2.20;;;;;;;;;;5049717;28;20045;-69
2023/10/30 01:12:50;;;;;;;2.20;2.10;;;;;;;;;;5050653;28;20061;-70
2023/10/30 01:15:19;;;;;;;2.15;1.95;;;;;;;;;;5049322;28;20075;-70
2023/10/30 01:17:49;;;;;;;2.20;2.10;;;;;;;;;;5050289;28;20095;-68
2023/10/30 01:20:17;;;;;;;2.10;2.00;;;;;;;;;;5048544;28;20413;-68
2023/10/30 01:22:46;;;;;;;2.50;2.30;;;;;;;;;;5041700;28;20045;-68
2023/10/30 01:25:14;;;;;;;2.10;1.90;;;;;;;;;;5048773;28;20150;-69
2023/10/30 01:27:42;;;;;;;1.98;1.88;;;;;;;;;;5041513;28;20455;-69
2023/10/30 01:30:11;;;;;;;2.00;1.90;;;;;;;;;;5049452;28;20199;-71
2023/10/30 01:32:40;;;;;;;2.55;2.00;;;;;;;;;;5044329;28;20051;-68
2023/10/30 01:35:10;;;;;;;2.28;2.08;;;;;;;;;;5046654;28;20049;-68
2023/10/30 01:37:38;;;;;;;2.33;2.22;;;;;;;;;;5047302;28;20044;-70
2023/10/30 01:40:08;;;;;;;2.10;2.00;;;;;;;;;;5045184;28;20134;-68
2023/10/30 01:42:36;;;;;;;2.00;1.90;;;;;;;;;;5049143;28;20052;-68
2023/10/30 01:45:05;;;;;;;1.88;1.77;;;;;;;;;;5049450;28;20041;-68
2023/10/30 01:47:33;;;;;;;2.30;2.20;;;;;;;;;;5045968;28;20106;-68
2023/10/30 01:50:02;;;;;;;2.10;2.00;;;;;;;;;;5043388;28;20211;-68
2023/10/30 01:52:33;;;;;;;2.17;2.08;;;;;;;;;;5049003;28;20099;-68
2023/10/30 01:55:01;;;;;;;1.90;1.80;;;;;;;;;;5048808;28;20052;-69
2023/10/30 01:57:30;;;;;;;2.15;2.05;;;;;;;;;;5048239;28;20080;-68
2023/10/30 02:00:02;;;;;;;2.10;2.00;;;;;;;;;;5048944;28;20516;-68
2023/10/30 02:02:31;;;;;;;2.17;2.00;;;;;;;;;;5042293;28;20098;-68
2023/10/30 02:04:59;;;;;;;4.47;2.00;;;;;;;;;;5043668;28;20300;-68
2023/10/30 02:07:28;;;;;;;2.30;2.10;;;;;;;;;;5039086;28;20053;-67
2023/10/30 02:09:57;;;;;;;2.13;2.00;;;;;;;;;;5049927;28;20052;-68
2023/10/30 02:12:26;;;;;;;2.00;1.90;;;;;;;;;;5047749;28;20486;-68
2023/10/30 02:14:55;;;;;;;2.22;2.05;;;;;;;;;;5048602;28;20513;-68
2023/10/30 02:17:23;;;;;;;2.10;2.00;;;;;;;;;;5048452;28;20080;-68
2023/10/30 02:19:52;;;;;;;2.28;2.08;;;;;;;;;;5049765;28;20079;-68
2023/10/30 02:22:20;;;;;;;2.30;2.20;;;;;;;;;;5048181;28;20468;-68
2023/10/30 02:24:48;;;;;;;2.20;2.10;;;;;;;;;;5045163;28;20098;-68
2023/10/30 02:27:18;;;;;;;2.10;2.00;;;;;;;;;;5044415;28;20130;-68
2023/10/30 02:29:46;;;;;;;2.38;2.25;;;;;;;;;;5045293;28;20045;-68
2023/10/30 02:32:15;;;;;;;2.72;2.53;;;;;;;;;;5042715;28;20047;-68
2023/10/30 02:34:43;;;;;;;2.10;2.00;;;;;;;;;;5048090;28;20049;-68
2023/10/30 02:37:12;;;;;;;2.00;1.90;;;;;;;;;;5043689;28;20421;-70
2023/10/30 02:39:40;;;;;;;2.35;2.25;;;;;;;;;;5046075;28;20076;-68
2023/10/30 02:42:09;;;;;;;2.95;2.65;;;;;;;;;;5039173;28;20044;-72
2023/10/30 02:44:39;;;;;;;2.40;2.30;;;;;;;;;;5044347;28;20136;-71
2023/10/30 02:47:07;;;;;;;2.88;2.65;;;;;;;;;;5043926;28;20068;-68
2023/10/30 02:49:36;;;;;;;2.50;2.30;;;;;;;;;;5046507;28;20049;-68
2023/10/30 02:52:04;;;;;;;2.38;2.22;;;;;;;;;;5049590;28;20200;-70
2023/10/30 02:54:33;;;;;;;2.30;2.20;;;;;;;;;;5048781;28;20498;-69
2023/10/30 02:57:01;;;;;;;2.78;2.65;;;;;;;;;;5046662;28;20119;-69
2023/10/30 02:59:29;;;;;;;2.60;2.40;;;;;;;;;;5048890;28;20454;-68
2023/10/30 03:01:59;;;;;;;2.80;2.40;;;;;;;;;;5052554;28;20406;-68
2023/10/30 03:04:28;;;;;;;2.50;2.40;;;;;;;;;;5048750;28;20049;-68
2023/10/30 03:06:58;;;;;;;3.90;2.97;;;;;;;;;;5046946;28;20041;-68
2023/10/30 03:09:26;;;;;;;2.40;2.30;;;;;;;;;;5052367;28;20041;-73
2023/10/30 03:11:55;;;;;;;2.30;2.20;;;;;;;;;;5047460;28;20052;-68
2023/10/30 03:14:23;;;;;;;2.35;2.15;;;;;;;;;;5049703;28;20048;-68
2023/10/30 03:16:52;;;;;;;2.30;2.10;;;;;;;;;;5052523;28;20496;-68
2023/10/30 03:19:21;;;;;;;2.45;2.30;;;;;;;;;;5051808;28;20049;-69
2023/10/30 03:21:50;;;;;;;2.53;2.33;;;;;;;;;;5048201;28;20049;-68
2023/10/30 03:24:18;;;;;;;4.75;2.47;;;;;;;;;;5052302;28;20140;-68
2023/10/30 03:26:47;;;;;;;2.25;2.13;;;;;;;;;;5049618;28;20052;-69
2023/10/30 03:29:15;;;;;;;2.88;2.38;;;;;;;;;;5044223;28;20080;-68
2023/10/30 03:31:43;;;;;;;2.45;2.35;;;;;;;;;;5043694;28;20045;-69
2023/10/30 03:34:12;;;;;;;3.15;2.17;;;;;;;;;;5051982;28;20053;-69
2023/10/30 03:36:42;;;;;;;2.47;2.28;;;;;;;;;;5048729;28;20049;-68
2023/10/30 03:39:10;;;;;;;2.35;2.20;;;;;;;;;;5044550;28;20077;-68
2023/10/30 03:41:39;;;;;;;2.22;2.13;;;;;;;;;;5049149;28;20559;-68
2023/10/30 03:44:08;;;;;;;2.00;1.90;;;;;;;;;;5051928;28;20088;-68
2023/10/30 03:46:37;;;;;;;2.58;2.38;;;;;;;;;;5050937;28;20454;-72
2023/10/30 03:49:05;;;;;;;2.33;2.20;;;;;;;;;;5048591;28;20448;-68
2023/10/30 03:51:34;;;;;;;2.17;2.08;;;;;;;;;;5046958;28;20045;-70
2023/10/30 03:54:04;;;;;;;2.15;2.05;;;;;;;;;;5048606;28;20052;-69
2023/10/30 03:56:32;;;;;;;2.20;2.10;;;;;;;;;;5047625;28;20036;-68
2023/10/30 03:59:01;;;;;;;2.20;2.10;;;;;;;;;;5050237;28;20049;-68
2023/10/30 04:01:29;;;;;;;2.17;2.08;;;;;;;;;;5051332;28;20485;-67
2023/10/30 04:03:57;;;;;;;2.40;2.30;;;;;;;;;;5052307;28;20049;-68
2023/10/30 04:06:26;;;;;;;2.20;2.10;;;;;;;;;;5049140;28;20122;-69
2023/10/30 04:08:54;;;;;;;2.35;2.20;;;;;;;;;;5045567;28;20049;-68
2023/10/30 04:11:24;;;;;;;2.08;1.98;;;;;;;;;;5047459;28;20478;-68
2023/10/30 04:13:53;;;;;;;2.08;1.98;;;;;;;;;;5051613;28;20414;-68
2023/10/30 04:16:21;;;;;;;2.20;2.10;;;;;;;;;;5049146;28;20119;-68
2023/10/30 04:18:49;;;;;;;2.15;2.05;;;;;;;;;;5049723;28;20509;-69
2023/10/30 04:21:18;;;;;;;2.97;2.42;;;;;;;;;;5049719;28;20072;-68
2023/10/30 04:23:47;;;;;;;2.22;2.13;;;;;;;;;;5050365;28;20045;-68
2023/10/30 04:26:15;;;;;;;2.30;2.20;;;;;;;;;;5044995;28;20049;-69
2023/10/30 04:28:45;;;;;;;2.28;2.17;;;;;;;;;;5048138;28;20072;-68
2023/10/30 04:31:13;;;;;;;2.25;2.15;;;;;;;;;;5048585;28;20080;-68
2023/10/30 04:33:41;;;;;;;2.50;2.30;;;;;;;;;;5050500;28;20037;-69
2023/10/30 04:36:10;;;;;;;2.40;2.30;;;;;;;;;;5048838;28;20118;-68
2023/10/30 04:38:40;;;;;;;2.45;2.35;;;;;;;;;;5047284;28;20051;-69
2023/10/30 04:41:08;;;;;;;2.10;2.00;;;;;;;;;;5047019;28;20045;-68
2023/10/30 04:43:37;;;;;;;2.80;2.60;;;;;;;;;;5051570;28;20102;-68
2023/10/30 04:46:07;;;;;;;2.30;2.20;;;;;;;;;;5043860;28;20056;-69
2023/10/30 04:48:36;;;;;;;2.45;2.35;;;;;;;;;;5046192;28;20460;-69
2023/10/30 04:51:04;;;;;;;2.30;2.20;;;;;;;;;;5051251;28;20143;-69
2023/10/30 04:53:33;;;;;;;2.80;2.50;;;;;;;;;;5049096;28;20064;-68
2023/10/30 04:56:02;;;;;;;2.20;2.10;;;;;;;;;;5050143;28;20446;-69
2023/10/30 04:58:30;;;;;;;2.50;2.30;;;;;;;;;;5042141;28;20106;-69
2023/10/30 05:00:59;;;;;;;2.75;2.55;;;;;;;;;;5049622;28;20493;-69
2023/10/30 05:03:28;;;;;;;2.10;2.00;;;;;;;;;;5051608;28;20045;-69
2023/10/30 05:05:57;;;;;;;2.42;2.22;;;;;;;;;;5051241;28;20049;-69
2023/10/30 05:08:25;;;;;;;2.65;2.45;;;;;;;;;;5050359;28;20049;-68
2023/10/30 05:10:54;;;;;;;4.05;2.67;;;;;;;;;;5049005;28;20045;-68
2023/10/30 05:13:22;;;;;;;2.80;2.60;;;;;;;;;;5041193;28;20111;-69
2023/10/30 05:15:51;;;;;;;2.65;2.50;;;;;;;;;;5047788;28;20115;-69
2023/10/30 05:18:22;;;;;;;2.40;2.30;;;;;;;;;;5050756;28;20049;-68
2023/10/30 05:20:52;;;;;;;2.50;2.38;;;;;;;;;;5049663;28;20056;-68
2023/10/30 05:23:22;;;;;;;2.72;2.53;;;;;;;;;;5050730;28;20086;-69
2023/10/30 05:25:50;;;;;;;3.10;2.30;;;;;;;;;;5048872;28;20049;-69
2023/10/30 05:28:18;;;;;;;2.30;2.20;;;;;;;;;;5046316;28;20045;-68
2023/10/30 05:30:48;;;;;;;2.50;2.40;;;;;;;;;;5048140;28;20440;-69
2023/10/30 05:33:16;;;;;;;2.30;2.20;;;;;;;;;;5049847;28;20548;-70
2023/10/30 05:35:45;;;;;;;2.50;2.40;;;;;;;;;;5047284;28;20490;-69
2023/10/30 05:38:14;;;;;;;2.63;2.50;;;;;;;;;;5048056;28;20094;-68
2023/10/30 05:40:45;;;;;;;2.47;2.38;;;;;;;;;;5041133;28;20080;-69
2023/10/30 05:43:14;;;;;;;2.40;2.30;;;;;;;;;;5045540;28;20593;-69
2023/10/30 05:45:42;;;;;;;2.53;2.33;;;;;;;;;;5048442;28;20041;-70
2023/10/30 05:48:11;;;;;;;2.95;2.75;;;;;;;;;;5043658;28;20056;-70
2023/10/30 05:50:39;;;;;;;3.08;2.88;;;;;;;;;;5049945;28;20084;-71
2023/10/30 05:53:07;;;;;;;3.10;2.80;;;;;;;;;;5049794;28;20559;-69
2023/10/30 05:55:37;;;;;;;2.97;2.67;;;;;;;;;;5047169;28;20045;-69
2023/10/30 05:58:06;;;;;;;2.50;2.40;;;;;;;;;;5047207;28;20105;-68
2023/10/30 06:00:34;;;;;;;2.50;2.40;;;;;;;;;;5049229;28;20045;-69
2023/10/30 06:03:02;;;;;;;2.50;2.40;;;;;;;;;;5048641;28;20437;-69
2023/10/30 06:05:31;;;;;;;2.50;2.40;;;;;;;;;;5042934;28;20044;-69
2023/10/30 06:07:59;;;;;;;2.75;2.55;;;;;;;;;;5049355;28;20045;-69
2023/10/30 06:10:28;;;;;;;2.78;2.38;;;;;;;;;;5049914;28;20132;-69
2023/10/30 06:12:57;;;;;;;2.90;2.28;;;;;;;;;;5045621;28;20089;-69
2023/10/30 06:15:26;;;;;;;2.85;2.65;;;;;;;;;;5048161;28;20098;-70
2023/10/30 06:17:54;;;;;;;3.05;2.70;;;;;;;;;;5042062;28;20089;-68
2023/10/30 06:20:23;;;;;;;4.50;2.45;;;;;;;;;;5049146;28;20417;-72
2023/10/30 06:22:52;;;;;;;2.97;2.78;;;;;;;;;;5046531;28;20099;-68
2023/10/30 06:25:20;;;;;;;2.40;2.30;;;;;;;;;;5048705;28;20072;-68
2023/10/30 06:27:49;;;;;;;2.40;2.30;;;;;;;;;;5046999;28;20079;-69
2023/10/30 06:30:19;;;;;;;2.63;2.42;;;;;;;;;;5049776;28;20053;-69
2023/10/30 06:32:47;;;;;;;2.67;2.47;;;;;;;;;;5045362;28;20076;-69
2023/10/30 06:35:16;;;;;;;2.70;2.50;;;;;;;;;;5044688;28;20048;-70
2023/10/30 06:37:46;;;;;;;2.50;2.40;;;;;;;;;;5049675;28;20049;-69
2023/10/30 06:40:14;;;;;;;2.50;2.30;;;;;;;;;;5051697;28;20138;-70
2023/10/30 06:42:44;;;;;;;3.72;2.67;;;;;;;;;;5046706;28;20089;-69
2023/10/30 06:45:12;;;;;;;2.85;2.65;;;;;;;;;;5053387;28;20041;-69
2023/10/30 06:47:43;;;;;;;2.45;2.35;;;;;;;;;;5052044;28;20049;-69
2023/10/30 06:50:12;;;;;;;2.40;2.30;;;;;;;;;;5053113;28;20076;-70
2023/10/30 06:52:40;;;;;;;2.65;2.55;;;;;;;;;;5052552;28;20084;-70
2023/10/30 06:55:09;;;;;;;2.60;2.40;;;;;;;;;;5050022;28;20053;-69
2023/10/30 06:57:38;;;;;;;2.80;2.60;;;;;;;;;;5050887;28;20049;-69
2023/10/30 07:00:07;;;;;;;2.72;2.55;;;;;;;;;;5042157;28;20041;-69
2023/10/30 07:02:36;;;;;;;3.03;2.70;;;;;;;;;;5052663;28;20049;-69
2023/10/30 07:05:06;;;;;;;2.85;2.65;;;;;;;;;;5048394;28;20387;-69
2023/10/30 07:07:35;;;;;;;2.78;2.60;;;;;;;;;;5045280;28;20114;-69
2023/10/30 07:10:03;;;;;;;2.20;2.10;;;;;;;;;;5048299;28;20057;-70
2023/10/30 07:12:32;;;;;;;2.50;2.40;;;;;;;;;;5049976;28;20037;-69
2023/10/30 07:15:01;;;;;;;2.42;2.33;;;;;;;;;;5040605;28;20053;-71
2023/10/30 07:17:29;;;;;;;2.90;2.70;;;;;;;;;;5049286;28;20052;-71
2023/10/30 07:19:58;;;;;;;3.03;2.83;;;;;;;;;;5052876;28;20067;-68
2023/10/30 07:22:28;;;;;;;2.83;2.63;;;;;;;;;;5050514;28;20505;-68
2023/10/30 07:24:57;;;;;;;3.10;2.83;;;;;;;;;;5047153;28;20080;-69
2023/10/30 07:27:25;;;;;;;4.10;2.50;;;;;;;;;;5037080;28;20045;-68
2023/10/30 07:29:54;;;;;;;2.78;2.60;;;;;;;;;;5045403;28;20049;-70
2023/10/30 07:32:22;;;;;;;2.92;2.72;;;;;;;;;;5047777;28;20041;-69
2023/10/30 07:34:50;;;;;;;2.67;2.53;;;;;;;;;;5045983;28;20393;-68
2023/10/30 07:37:19;;;;;;;2.83;2.63;;;;;;;;;;5046508;28;20060;-68
2023/10/30 07:39:49;;;;;;;2.75;2.55;;;;;;;;;;5045209;28;20052;-68
2023/10/30 07:42:17;;;;;;;2.40;2.30;;;;;;;;;;5038446;28;20064;-69
2023/10/30 07:44:45;;;;;;;2.50;2.33;;;;;;;;;;5043322;28;20057;-70
2023/10/30 07:47:14;;;;;;;2.50;2.40;;;;;;;;;;5045170;28;20052;-69
2023/10/30 07:49:44;;;;;;;2.67;2.45;;;;;;;;;;5047683;28;20140;-72
2023/10/30 07:52:12;;;;;;;2.65;2.55;;;;;;;;;;5041400;28;20099;-70
2023/10/30 07:54:41;;;;;;;2.85;2.65;;;;;;;;;;5041444;28;20557;-68
2023/10/30 07:57:10;;;;;;;3.13;2.92;;;;;;;;;;5044533;28;20056;-68
2023/10/30 07:59:39;;;;;;;2.83;2.63;;;;;;;;;;5050010;28;20056;-68
2023/10/30 08:02:09;;;;;;;2.72;2.53;;;;;;;;;;5045365;28;20521;-68
2023/10/30 08:04:37;;;;;;;3.40;2.50;;;;;;;;;;5045545;28;20076;-68
2023/10/30 08:07:05;;;;;;;2.60;2.42;;;;;;;;;;5045568;28;20056;-69
2023/10/30 08:09:34;;;;;;;2.97;2.78;;;;;;;;;;5049042;28;20123;-68
2023/10/30 08:12:03;;;;;;;4.18;2.95;;;;;;;;;;5040846;28;20052;-68
2023/10/30 08:14:33;;;;;;;3.03;2.72;;;;;;;;;;5047456;28;20055;-67
2023/10/30 08:17:15;;;;;;;3.05;2.85;;;;;;;;;;5044954;28;20099;-72
2023/10/30 08:19:43;;;;;;;3.38;3.10;;;;;;;;;;5044409;28;20123;-71
2023/10/30 08:22:11;;;;;;;4.25;3.03;;;;;;;;;;5044969;28;20084;-70
2023/10/30 08:24:40;;;;;;;2.80;2.60;;;;;;;;;;5046583;28;20048;-70
2023/10/30 08:27:08;;;;;;;2.60;2.50;;;;;;;;;;5043513;28;20049;-70
2023/10/30 08:29:38;;;;;;;2.47;2.38;;;;;;;;;;5048066;28;20498;-70
2023/10/30 08:32:07;;;;;;;2.65;2.45;;;;;;;;;;5045779;28;20045;-69
2023/10/30 08:34:35;;;;;;;3.28;2.97;;;;;;;;;;5047394;28;20045;-70
2023/10/30 08:37:04;;;;;;;2.75;2.55;;;;;;;;;;5044793;28;20045;-71
2023/10/30 08:39:32;;;;;;;2.85;2.58;;;;;;;;;;5045959;28;20056;-73
2023/10/30 08:42:01;;;;;;;3.33;2.78;;;;;;;;;;5042450;28;20284;-72
2023/10/30 08:44:31;;;;;;;2.90;2.70;;;;;;;;;;5047428;28;20057;-71
2023/10/30 08:47:01;;;;;;;4.25;3.03;;;;;;;;;;5045814;28;20071;-71
2023/10/30 08:49:32;;;;;;;3.00;2.70;;;;;;;;;;5048008;28;20111;-70
2023/10/30 08:52:00;;;;;;;3.90;3.10;;;;;;;;;;5043012;28;20054;-72
2023/10/30 08:54:32;;;;;;;2.97;2.78;;;;;;;;;;5045538;28;20092;-70
2023/10/30 08:57:01;;;;;;;3.20;2.90;;;;;;;;;;5035157;28;20536;-73
2023/10/30 08:59:44;;;;;;;2.67;2.47;;;;;;;;;;5059386;28;20552;-69
2023/10/30 09:02:14;;;;;;;2.88;2.67;;;;;;;;;;5041654;28;20102;-72
2023/10/30 09:04:42;;;;;;;5.05;2.78;;;;;;;;;;5041234;28;20486;-68
2023/10/30 09:07:11;;;;;;;2.67;2.40;;;;;;;;;;5043598;28;20052;-69
2023/10/30 09:09:42;;;;;;;3.05;2.85;;;;;;;;;;5044450;28;20489;-68
2023/10/30 09:12:10;;;;;;;2.40;2.20;;;;;;;;;;5040729;28;20413;-69
2023/10/30 09:14:39;;;;;;;2.70;2.50;;;;;;;;;;5045424;28;20537;-69
2023/10/30 09:17:08;;;;;;;2.72;2.53;;;;;;;;;;5046385;28;20099;-72
2023/10/30 09:19:39;;;;;;;2.28;2.17;;;;;;;;;;5047655;28;20091;-71
2023/10/30 09:22:07;;;;;;;2.50;2.40;;;;;;;;;;5048222;28;20129;-72
2023/10/30 09:24:35;;;;;;;2.65;2.45;;;;;;;;;;5046689;28;20141;-70
2023/10/30 09:27:04;;;;;;;2.40;2.30;;;;;;;;;;5045486;28;20136;-69
2023/10/30 09:29:33;;;;;;;2.40;2.30;;;;;;;;;;5043104;28;20064;-71
2023/10/30 09:32:03;;;;;;;2.10;1.98;;;;;;;;;;5040802;28;20497;-70
2023/10/30 09:34:31;;;;;;;2.38;2.25;;;;;;;;;;5047721;28;20049;-73
2023/10/30 09:37:01;;;;;;;2.10;2.00;;;;;;;;;;5042416;28;20103;-70
2023/10/30 09:39:30;;;;;;;2.10;2.00;;;;;;;;;;5047628;28;20615;-69
2023/10/30 09:42:00;;;;;;;2.45;2.25;;;;;;;;;;5048851;28;20076;-70
2023/10/30 09:44:29;;;;;;;2.00;1.90;;;;;;;;;;5048926;28;20049;-69
2023/10/30 09:46:58;;;;;;;2.00;1.90;;;;;;;;;;5041157;28;20050;-70
2023/10/30 09:49:28;;;;;;;2.03;1.90;;;;;;;;;;5033453;28;20917;-71
2023/10/30 09:51:59;;;;;;;1.90;1.80;;;;;;;;;;5047174;28;20048;-71
2023/10/30 09:54:29;;;;;;;2.05;1.95;;;;;;;;;;5047800;28;20049;-70
2023/10/30 09:56:58;;;;;;;1.90;1.80;;;;;;;;;;5047878;28;20055;-71
2023/10/30 09:59:27;;;;;;;2.88;1.83;;;;;;;;;;5044966;28;20076;-70
2023/10/30 10:01:56;;;;;;;2.20;1.92;;;;;;;;;;5045670;28;20053;-69
2023/10/30 10:04:24;;;;;;;2.15;1.77;;;;;;;;;;5043521;28;20037;-70
2023/10/30 10:06:53;;;;;;;2.13;1.92;;;;;;;;;;5041646;28;20461;-67
2023/10/30 10:09:22;;;;;;;1.60;1.60;;;;;;;;;;5036906;28;20041;-67
2023/10/30 10:11:52;;;;;;;1.95;1.83;;;;;;;;;;5048231;28;20427;-66
2023/10/30 10:14:21;;;;;;;2.22;2.03;;;;;;;;;;5047679;28;20056;-67
2023/10/30 10:16:50;;;;;;;4.72;1.80;;;;;;;;;;5049644;28;20110;-69
2023/10/30 10:19:20;;;;;;;1.75;1.65;;;;;;;;;;5045176;28;20045;-71
2023/10/30 10:21:49;;;;;;;1.70;1.60;;;;;;;;;;5037990;28;20120;-68
2023/10/30 10:24:28;;;;;;;2.42;2.20;;;;;;;;;;5048262;28;20049;-70
2023/10/30 10:27:02;;;;;;;3.20;1.90;;;;;;;;;;5048733;28;20045;-69
2023/10/30 10:29:31;;;;;;;2.00;1.90;;;;;;;;;;5044472;28;20057;-70
2023/10/30 10:31:59;;;;;;;1.90;1.80;;;;;;;;;;5043645;28;20045;-71
2023/10/30 10:34:31;;;;;;;1.60;1.50;;;;;;;;;;5048061;28;20060;-67
2023/10/30 10:37:01;;;;;;;1.90;1.80;;;;;;;;;;5041964;28;20064;-67
2023/10/30 10:39:31;;;;;;;3.33;1.58;;;;;;;;;;5045526;28;20049;-68
2023/10/30 10:42:01;;;;;;;1.80;1.70;;;;;;;;;;5036717;28;20057;-74
2023/10/30 10:44:29;;;;;;;1.73;1.63;;;;;;;;;;5046221;28;20106;-70
2023/10/30 10:46:59;;;;;;;1.70;1.60;;;;;;;;;;5037014;28;20048;-69
2023/10/30 10:49:27;;;;;;;1.85;1.73;;;;;;;;;;5045894;28;20076;-69
2023/10/30 10:51:56;;;;;;;1.65;1.55;;;;;;;;;;5042280;28;20103;-72
2023/10/30 10:54:28;;;;;;;1.70;1.50;;;;;;;;;;5044655;28;20044;-69
2023/10/30 10:56:57;;;;;;;1.50;1.50;;;;;;;;;;5038146;28;20334;-76
2023/10/30 10:59:29;;;;;;;1.70;1.60;;;;;;;;;;5036915;28;20398;-76
2023/10/30 11:01:58;;;;;;;1.85;1.75;;;;;;;;;;5037752;28;20044;-70
2023/10/30 11:04:27;;;;;;;1.90;1.80;;;;;;;;;;5040457;28;20088;-68
2023/10/30 11:06:59;;;;;;;2.47;2.03;;;;;;;;;;5039439;28;20049;-69
2023/10/30 11:09:35;;;;;;;1.80;1.70;;;;;;;;;;5036306;28;20505;-69
2023/10/30 11:12:07;;;;;;;1.95;1.80;;;;;;;;;;5041447;28;20051;-75
2023/10/30 11:14:44;;;;;;;1.65;1.58;;;;;;;;;;5041430;28;20379;-69
2023/10/30 11:17:12;;;;;;;1.60;1.50;;;;;;;;;;5038092;28;20118;-69
2023/10/30 11:19:40;;;;;;;1.90;1.80;;;;;;;;;;5047965;28;20041;-70
2023/10/30 11:22:09;;;;;;;1.90;1.80;;;;;;;;;;5049781;28;20080;-72
2023/10/30 11:24:38;;;;;;;1.80;1.70;;;;;;;;;;5051176;28;20049;-70
2023/10/30 11:27:26;;;;;;;1.85;1.70;;;;;;;;;;5048222;28;20070;-72
2023/10/30 11:29:57;;;;;;;1.90;1.80;;;;;;;;;;5057121;28;20056;-69
2023/10/30 11:32:26;;;;;;;1.60;1.60;;;;;;;;;;5042706;28;20102;-69
2023/10/30 11:34:55;;;;;;;1.50;1.50;;;;;;;;;;5048048;28;20668;-73
2023/10/30 11:37:23;;;;;;;1.70;1.60;;;;;;;;;;5046071;28;20053;-69
2023/10/30 11:39:55;;;;;;;2.40;2.30;;;;;;;;;;5050239;28;20048;-71
2023/10/30 11:42:32;;;;;;;1.40;1.40;;;;;;;;;;5049955;28;20045;-70
2023/10/30 11:45:20;;;;;;;1.77;1.50;;;;;;;;;;5044439;28;20514;-69
2023/10/30 11:47:49;;;;;;;3.00;1.55;;;;;;;;;;5050718;28;20048;-70
2023/10/30 11:50:19;;;;;;;1.60;1.50;;;;;;;;;;5042108;28;20056;-69
2023/10/30 11:52:48;;;;;;;1.90;1.75;;;;;;;;;;5046179;28;20049;-68
2023/10/30 11:55:19;;;;;;;2.20;1.50;;;;;;;;;;5048541;28;20056;-69
2023/10/30 11:57:48;;;;;;;1.65;1.55;;;;;;;;;;5049515;28;20111;-68
2023/10/30 12:00:16;;;;;;;1.63;1.52;;;;;;;;;;5038558;28;20041;-68
2023/10/30 12:02:47;;;;;;;1.65;1.55;;;;;;;;;;5039853;28;20095;-70
2023/10/30 12:05:15;;;;;;;1.50;1.45;;;;;;;;;;5039076;28;20052;-71
2023/10/30 12:07:44;;;;;;;1.55;1.45;;;;;;;;;;5050657;28;20068;-71
2023/10/30 12:10:12;;;;;;;1.50;1.50;;;;;;;;;;5048599;28;20099;-70
2023/10/30 12:12:42;;;;;;;2.55;1.75;;;;;;;;;;5051675;28;20053;-70
2023/10/30 12:15:10;;;;;;;2.40;1.52;;;;;;;;;;5039866;28;20064;-72
2023/10/30 12:17:40;;;;;;;2.38;1.60;;;;;;;;;;5048180;28;20118;-69
2023/10/30 12:20:11;;;;;;;2.67;1.98;;;;;;;;;;5051360;28;20147;-70
2023/10/30 12:22:42;;;;;;;1.55;1.45;;;;;;;;;;5042721;28;20048;-71
2023/10/30 12:25:15;;;;;;;2.08;1.70;;;;;;;;;;5050412;28;20485;-71
2023/10/30 12:27:46;;;;;;;1.70;1.60;;;;;;;;;;5051760;28;20045;-73
2023/10/30 12:30:15;;;;;;;4.35;2.13;;;;;;;;;;5039087;28;20474;-70
2023/10/30 12:32:44;;;;;;;3.17;1.73;;;;;;;;;;5049992;28;20056;-70
2023/10/30 12:35:14;;;;;;;1.98;1.67;;;;;;;;;;5049992;28;20057;-70
2023/10/30 12:37:43;;;;;;;1.65;1.50;;;;;;;;;;5045264;28;20349;-70
2023/10/30 12:40:12;;;;;;;1.77;1.60;;;;;;;;;;5045475;28;20052;-70
2023/10/30 12:42:41;;;;;;;1.90;1.80;;;;;;;;;;5049611;28;20131;-71
2023/10/30 12:45:11;;;;;;;2.38;2.15;;;;;;;;;;5043956;28;20132;-69
2023/10/30 12:47:41;;;;;;;1.52;1.42;;;;;;;;;;5045740;28;20524;-70
2023/10/30 12:50:11;;;;;;;1.75;1.50;;;;;;;;;;5044411;28;20053;-71
2023/10/30 12:52:42;;;;;;;1.75;1.65;;;;;;;;;;5044777;28;20614;-75
2023/10/30 12:55:11;;;;;;;2.33;1.73;;;;;;;;;;5050467;28;20049;-71
2023/10/30 12:57:39;;;;;;;3.28;1.60;;;;;;;;;;5049534;28;20076;-71
2023/10/30 13:00:09;;;;;;;1.60;1.50;;;;;;;;;;5046412;28;20052;-70
2023/10/30 13:02:37;;;;;;;1.55;1.45;;;;;;;;;;5047751;28;20052;-70
2023/10/30 13:05:07;;;;;;;1.38;1.38;;;;;;;;;;5038330;28;20129;-70
2023/10/30 13:07:35;;;;;;;1.58;1.50;;;;;;;;;;5037833;28;20124;-71
2023/10/30 13:10:05;;;;;;;4.20;1.60;;;;;;;;;;5043201;28;20052;-69
2023/10/30 13:12:34;;;;;;;1.58;1.48;;;;;;;;;;5050310;28;20119;-69
2023/10/30 13:15:04;;;;;;;1.58;1.48;;;;;;;;;;5046314;28;20069;-73
2023/10/30 13:17:33;;;;;;;2.00;1.50;;;;;;;;;;5048179;28;20469;-69
2023/10/30 13:20:01;;;;;;;1.92;1.83;;;;;;;;;;5048563;28;20053;-69
2023/10/30 13:22:30;;;;;;;3.40;1.63;;;;;;;;;;5050354;28;20045;-69
2023/10/30 13:24:59;;;;;;;1.45;1.38;;;;;;;;;;5050315;28;20107;-71
2023/10/30 13:27:29;;;;;;;1.67;1.45;;;;;;;;;;5049016;28;20081;-70
2023/10/30 13:29:58;;;;;;;1.85;1.73;;;;;;;;;;5047299;28;20088;-71
2023/10/30 13:32:26;;;;;;;2.22;2.10;;;;;;;;;;5048124;28;20051;-70
2023/10/30 13:34:56;;;;;;;2.25;1.83;;;;;;;;;;5047344;28;20056;-71
2023/10/30 13:37:25;;;;;;;1.80;1.70;;;;;;;;;;5049063;28;20056;-69
2023/10/30 13:39:53;;;;;;;2.05;1.92;;;;;;;;;;5050075;28;20053;-72
2023/10/30 13:42:22;;;;;;;1.80;1.70;;;;;;;;;;5049977;28;20336;-70
2023/10/30 13:44:52;;;;;;;1.70;1.60;;;;;;;;;;5040751;28;20049;-69
2023/10/30 13:47:20;;;;;;;2.17;2.08;;;;;;;;;;5048307;28;20057;-69
2023/10/30 13:49:48;;;;;;;2.45;2.20;;;;;;;;;;5049907;28;20041;-69
2023/10/30 13:52:18;;;;;;;2.10;2.00;;;;;;;;;;5049307;28;20409;-76
2023/10/30 13:54:46;;;;;;;2.97;2.50;;;;;;;;;;5045321;28;21848;-70
2023/10/30 13:57:15;;;;;;;3.80;2.40;;;;;;;;;;5045660;28;20049;-74
2023/10/30 13:59:43;;;;;;;2.55;2.40;;;;;;;;;;5039947;28;20053;-71
2023/10/30 14:02:14;;;;;;;7.22;2.63;;;;;;;;;;5044562;28;20094;-70
2023/10/30 14:04:43;;;;;;;2.20;2.10;;;;;;;;;;5047752;28;20051;-70
2023/10/30 14:07:13;;;;;;;3.17;2.50;;;;;;;;;;5047359;28;20057;-70
2023/10/30 14:09:41;;;;;;;2.92;2.63;;;;;;;;;;5049806;28;20045;-70
2023/10/30 14:12:10;;;;;;;2.65;2.45;;;;;;;;;;5043995;28;20060;-71
2023/10/30 14:14:38;;;;;;;2.30;2.20;;;;;;;;;;5046791;28;20049;-69
2023/10/30 14:17:07;;;;;;;3.20;2.92;;;;;;;;;;5047270;28;20154;-68
2023/10/30 14:19:36;;;;;;;3.22;2.53;;;;;;;;;;5048773;28;20045;-68
2023/10/30 14:22:05;;;;;;;2.40;2.30;;;;;;;;;;5048917;28;20553;-68
2023/10/30 14:24:34;;;;;;;4.75;2.60;;;;;;;;;;5048948;28;20122;-67
2023/10/30 14:27:02;;;;;;;2.88;2.63;;;;;;;;;;5047450;28;20103;-69
2023/10/30 14:29:31;;;;;;;3.17;2.72;;;;;;;;;;5048110;28;20131;-70
2023/10/30 14:31:59;;;;;;;2.15;2.05;;;;;;;;;;5048767;28;20049;-72
2023/10/30 14:34:28;;;;;;;4.47;2.55;;;;;;;;;;5046613;28;20564;-76
2023/10/30 14:36:58;;;;;;;3.10;2.42;;;;;;;;;;5048102;28;20052;-69
2023/10/30 14:39:26;;;;;;;2.60;2.40;;;;;;;;;;5048350;28;20045;-69
2023/10/30 14:41:54;;;;;;;2.63;2.42;;;;;;;;;;5048108;28;20073;-70
2023/10/30 14:44:23;;;;;;;2.40;2.20;;;;;;;;;;5048506;28;20057;-73
2023/10/30 14:46:51;;;;;;;2.25;2.15;;;;;;;;;;5044636;28;20052;-69
2023/10/30 14:49:20;;;;;;;2.53;2.35;;;;;;;;;;5046942;28;20106;-69
2023/10/30 14:51:50;;;;;;;3.03;2.40;;;;;;;;;;5042178;28;20106;-71
2023/10/30 14:54:19;;;;;;;2.50;2.30;;;;;;;;;;5046270;28;20053;-71